sensor_id;sensor_type;location;lat;lon;timestamp;pressure;altitude;pressure_sealevel;temperature;humidity
15263;BME280;7733;51.554;13.590;2023-07-20T00:01:48;99984.94;;;19.67;97.47
15263;BME280;7733;51.554;13.590;2023-07-20T00:04:14;99989.66;;;19.92;97.35
15263;BME280;7733;51.554;13.590;2023-07-20T00:06:40;99984.81;;;20.29;94.96
15263;BME280;7733;51.554;13.590;2023-07-20T00:09:09;99986.06;;;20.38;93.61
15263;BME280;7733;51.554;13.590;2023-07-20T00:11:38;99975.00;;;19.85;95.74
15263;BME280;7733;51.554;13.590;2023-07-20T00:14:05;99979.63;;;20.56;91.60
15263;BME280;7733;51.554;13.590;2023-07-20T00:16:32;99984.59;;;20.18;94.15
15263;BME280;7733;51.554;13.590;2023-07-20T00:18:58;99971.09;;;20.21;94.44
15263;BME280;7733;51.554;13.590;2023-07-20T00:21:23;99973.16;;;20.46;92.61
15263;BME280;7733;51.554;13.590;2023-07-20T00:23:49;99973.31;;;20.28;92.33
15263;BME280;7733;51.554;13.590;2023-07-20T00:26:15;99982.47;;;20.53;90.59
15263;BME280;7733;51.554;13.590;2023-07-20T00:28:41;99974.25;;;20.27;90.89
15263;BME280;7733;51.554;13.590;2023-07-20T00:31:06;99974.34;;;20.40;90.72
15263;BME280;7733;51.554;13.590;2023-07-20T00:33:32;99967.16;;;20.56;88.77
15263;BME280;7733;51.554;13.590;2023-07-20T00:35:58;99962.59;;;20.58;88.76
15263;BME280;7733;51.554;13.590;2023-07-20T00:38:23;99976.09;;;20.41;89.05
15263;BME280;7733;51.554;13.590;2023-07-20T00:40:49;99977.22;;;19.93;93.29
15263;BME280;7733;51.554;13.590;2023-07-20T00:43:15;99963.97;;;20.35;90.89
15263;BME280;7733;51.554;13.590;2023-07-20T00:45:41;99971.59;;;19.97;92.72
15263;BME280;7733;51.554;13.590;2023-07-20T00:48:08;99967.56;;;20.06;92.62
15263;BME280;7733;51.554;13.590;2023-07-20T00:50:34;99972.97;;;20.04;91.56
15263;BME280;7733;51.554;13.590;2023-07-20T00:53:03;99977.25;;;20.21;91.50
15263;BME280;7733;51.554;13.590;2023-07-20T00:55:31;99977.88;;;20.26;90.35
15263;BME280;7733;51.554;13.590;2023-07-20T00:57:58;99974.69;;;20.50;88.45
15263;BME280;7733;51.554;13.590;2023-07-20T01:00:23;99974.31;;;20.12;90.11
15263;BME280;7733;51.554;13.590;2023-07-20T01:02:50;99978.03;;;20.09;90.42
15263;BME280;7733;51.554;13.590;2023-07-20T01:05:16;99982.22;;;20.13;90.08
15263;BME280;7733;51.554;13.590;2023-07-20T01:08:01;99990.16;;;19.99;90.85
15263;BME280;7733;51.554;13.590;2023-07-20T01:10:53;99986.72;;;19.67;91.97
15263;BME280;7733;51.554;13.590;2023-07-20T01:13:21;99980.59;;;19.81;91.15
15263;BME280;7733;51.554;13.590;2023-07-20T01:15:56;99990.03;;;19.86;90.43
15263;BME280;7733;51.554;13.590;2023-07-20T01:18:21;99992.56;;;19.58;91.60
15263;BME280;7733;51.554;13.590;2023-07-20T01:20:47;99991.44;;;19.14;94.92
15263;BME280;7733;51.554;13.590;2023-07-20T01:30:50;100002.38;;;18.60;98.95
15263;BME280;7733;51.554;13.590;2023-07-20T01:33:20;100003.69;;;18.86;97.65
15263;BME280;7733;51.554;13.590;2023-07-20T01:35:54;99994.75;;;18.53;98.01
15263;BME280;7733;51.554;13.590;2023-07-20T01:38:21;99998.97;;;18.40;99.07
15263;BME280;7733;51.554;13.590;2023-07-20T01:40:47;99994.88;;;18.85;96.21
15263;BME280;7733;51.554;13.590;2023-07-20T01:43:13;100000.66;;;18.76;97.07
15263;BME280;7733;51.554;13.590;2023-07-20T01:45:39;99991.16;;;18.72;97.68
15263;BME280;7733;51.554;13.590;2023-07-20T01:48:05;99994.22;;;18.64;98.76
15263;BME280;7733;51.554;13.590;2023-07-20T01:50:31;99991.63;;;19.11;95.01
15263;BME280;7733;51.554;13.590;2023-07-20T01:52:56;99998.13;;;18.90;96.00
15263;BME280;7733;51.554;13.590;2023-07-20T01:55:22;99984.69;;;19.25;94.34
15263;BME280;7733;51.554;13.590;2023-07-20T01:57:48;99995.56;;;19.04;94.49
15263;BME280;7733;51.554;13.590;2023-07-20T02:00:14;100003.25;;;18.93;94.88
15263;BME280;7733;51.554;13.590;2023-07-20T02:02:41;99997.84;;;18.79;96.22
15263;BME280;7733;51.554;13.590;2023-07-20T02:05:07;100000.72;;;19.07;94.58
15263;BME280;7733;51.554;13.590;2023-07-20T02:07:33;100006.72;;;18.62;97.04
15263;BME280;7733;51.554;13.590;2023-07-20T02:09:59;100003.63;;;18.87;95.68
15263;BME280;7733;51.554;13.590;2023-07-20T02:12:24;100002.25;;;18.96;94.45
15263;BME280;7733;51.554;13.590;2023-07-20T02:14:50;100000.84;;;18.73;96.39
15263;BME280;7733;51.554;13.590;2023-07-20T02:17:16;100008.03;;;18.71;96.14
15263;BME280;7733;51.554;13.590;2023-07-20T02:19:42;100008.06;;;18.87;95.17
15263;BME280;7733;51.554;13.590;2023-07-20T02:22:08;100006.34;;;19.01;94.23
15263;BME280;7733;51.554;13.590;2023-07-20T02:24:34;100003.44;;;19.22;92.30
15263;BME280;7733;51.554;13.590;2023-07-20T02:27:00;100003.78;;;18.84;94.57
15263;BME280;7733;51.554;13.590;2023-07-20T02:29:26;100002.06;;;18.83;94.60
15263;BME280;7733;51.554;13.590;2023-07-20T02:31:51;100007.22;;;19.02;94.11
15263;BME280;7733;51.554;13.590;2023-07-20T02:34:17;100006.53;;;19.14;92.58
15263;BME280;7733;51.554;13.590;2023-07-20T02:36:43;100013.56;;;18.99;93.49
15263;BME280;7733;51.554;13.590;2023-07-20T02:39:09;100010.66;;;19.04;93.30
15263;BME280;7733;51.554;13.590;2023-07-20T02:41:35;100013.22;;;19.21;92.27
15263;BME280;7733;51.554;13.590;2023-07-20T02:44:01;100010.81;;;19.01;93.47
15263;BME280;7733;51.554;13.590;2023-07-20T02:46:27;100013.25;;;19.05;93.35
15263;BME280;7733;51.554;13.590;2023-07-20T02:48:55;100021.03;;;19.08;92.93
15263;BME280;7733;51.554;13.590;2023-07-20T02:51:21;100020.09;;;19.09;92.30
15263;BME280;7733;51.554;13.590;2023-07-20T02:53:47;100022.16;;;19.04;92.75
15263;BME280;7733;51.554;13.590;2023-07-20T02:56:12;100026.00;;;18.83;93.89
15263;BME280;7733;51.554;13.590;2023-07-20T02:58:41;100022.97;;;18.39;96.99
15263;BME280;7733;51.554;13.590;2023-07-20T03:01:11;100026.19;;;18.28;98.72
15263;BME280;7733;51.554;13.590;2023-07-20T03:03:37;100025.34;;;18.78;95.67
15263;BME280;7733;51.554;13.590;2023-07-20T03:06:07;100029.50;;;18.99;94.73
15263;BME280;7733;51.554;13.590;2023-07-20T03:08:35;100032.38;;;18.29;99.36
15263;BME280;7733;51.554;13.590;2023-07-20T03:11:01;100036.81;;;18.63;97.40
15263;BME280;7733;51.554;13.590;2023-07-20T03:13:27;100029.88;;;18.59;98.92
15263;BME280;7733;51.554;13.590;2023-07-20T03:15:53;100034.00;;;18.66;97.40
15263;BME280;7733;51.554;13.590;2023-07-20T03:18:19;100035.63;;;18.68;97.26
15263;BME280;7733;51.554;13.590;2023-07-20T03:20:44;100045.31;;;18.69;97.58
15263;BME280;7733;51.554;13.590;2023-07-20T03:23:11;100038.53;;;19.12;94.41
15263;BME280;7733;51.554;13.590;2023-07-20T03:25:36;100043.00;;;18.62;98.73
15263;BME280;7733;51.554;13.590;2023-07-20T03:28:03;100047.50;;;18.94;95.96
15263;BME280;7733;51.554;13.590;2023-07-20T03:30:29;100050.50;;;18.88;97.50
15263;BME280;7733;51.554;13.590;2023-07-20T03:32:54;100042.19;;;18.94;96.34
15263;BME280;7733;51.554;13.590;2023-07-20T03:35:20;100040.44;;;18.60;98.78
15263;BME280;7733;51.554;13.590;2023-07-20T03:37:46;100047.25;;;18.83;97.15
15263;BME280;7733;51.554;13.590;2023-07-20T03:40:12;100049.75;;;18.86;96.81
15263;BME280;7733;51.554;13.590;2023-07-20T03:42:37;100051.91;;;19.11;95.17
15263;BME280;7733;51.554;13.590;2023-07-20T03:45:05;100045.59;;;18.80;96.96
15263;BME280;7733;51.554;13.590;2023-07-20T03:47:31;100044.50;;;19.00;95.51
15263;BME280;7733;51.554;13.590;2023-07-20T03:49:57;100053.44;;;18.99;96.36
15263;BME280;7733;51.554;13.590;2023-07-20T03:52:23;100048.88;;;18.86;96.13
15263;BME280;7733;51.554;13.590;2023-07-20T03:54:50;100058.25;;;18.75;96.98
15263;BME280;7733;51.554;13.590;2023-07-20T03:57:18;100048.88;;;18.86;97.41
15263;BME280;7733;51.554;13.590;2023-07-20T03:59:48;100054.28;;;18.84;97.62
15263;BME280;7733;51.554;13.590;2023-07-20T04:02:14;100050.50;;;18.88;98.06
15263;BME280;7733;51.554;13.590;2023-07-20T04:04:40;100052.13;;;18.91;97.21
15263;BME280;7733;51.554;13.590;2023-07-20T04:07:06;100064.91;;;18.84;98.00
15263;BME280;7733;51.554;13.590;2023-07-20T04:09:32;100062.09;;;18.52;99.69
15263;BME280;7733;51.554;13.590;2023-07-20T04:11:59;100059.84;;;18.62;99.28
15263;BME280;7733;51.554;13.590;2023-07-20T04:14:25;100062.25;;;19.00;98.28
15263;BME280;7733;51.554;13.590;2023-07-20T04:16:51;100062.13;;;19.03;97.25
15263;BME280;7733;51.554;13.590;2023-07-20T04:19:17;100057.66;;;19.03;97.09
15263;BME280;7733;51.554;13.590;2023-07-20T04:21:43;100065.47;;;19.06;97.18
15263;BME280;7733;51.554;13.590;2023-07-20T04:24:09;100066.94;;;18.79;98.39
15263;BME280;7733;51.554;13.590;2023-07-20T04:26:35;100064.19;;;18.80;99.27
15263;BME280;7733;51.554;13.590;2023-07-20T04:29:02;100065.84;;;18.83;99.33
15263;BME280;7733;51.554;13.590;2023-07-20T04:31:27;100062.38;;;18.81;99.22
15263;BME280;7733;51.554;13.590;2023-07-20T04:33:53;100065.84;;;18.83;99.52
15263;BME280;7733;51.554;13.590;2023-07-20T04:36:19;100067.06;;;18.93;99.79
15263;BME280;7733;51.554;13.590;2023-07-20T04:38:45;100059.47;;;18.70;100.00
15263;BME280;7733;51.554;13.590;2023-07-20T04:41:11;100064.94;;;18.32;100.00
15263;BME280;7733;51.554;13.590;2023-07-20T04:43:44;100061.50;;;18.47;100.00
15263;BME280;7733;51.554;13.590;2023-07-20T04:46:11;100061.66;;;18.44;100.00
15263;BME280;7733;51.554;13.590;2023-07-20T04:48:37;100072.03;;;18.49;100.00
15263;BME280;7733;51.554;13.590;2023-07-20T04:51:03;100064.78;;;18.70;100.00
15263;BME280;7733;51.554;13.590;2023-07-20T04:53:29;100065.75;;;18.84;100.00
15263;BME280;7733;51.554;13.590;2023-07-20T04:55:56;100067.88;;;18.78;100.00
15263;BME280;7733;51.554;13.590;2023-07-20T04:58:22;100067.91;;;18.43;100.00
15263;BME280;7733;51.554;13.590;2023-07-20T05:00:49;100063.25;;;18.81;100.00
15263;BME280;7733;51.554;13.590;2023-07-20T05:03:15;100065.88;;;18.66;100.00
15263;BME280;7733;51.554;13.590;2023-07-20T05:05:41;100064.44;;;18.59;100.00
15263;BME280;7733;51.554;13.590;2023-07-20T05:08:07;100069.06;;;18.72;100.00
15263;BME280;7733;51.554;13.590;2023-07-20T05:10:33;100066.28;;;18.91;100.00
15263;BME280;7733;51.554;13.590;2023-07-20T05:12:59;100065.69;;;18.86;100.00
15263;BME280;7733;51.554;13.590;2023-07-20T05:15:25;100072.22;;;18.63;100.00
15263;BME280;7733;51.554;13.590;2023-07-20T05:17:51;100069.91;;;18.73;100.00
15263;BME280;7733;51.554;13.590;2023-07-20T05:20:17;100070.41;;;18.64;100.00
15263;BME280;7733;51.554;13.590;2023-07-20T05:22:43;100071.66;;;19.07;100.00
15263;BME280;7733;51.554;13.590;2023-07-20T05:25:11;100070.94;;;18.70;100.00
15263;BME280;7733;51.554;13.590;2023-07-20T05:27:38;100072.81;;;18.68;100.00
15263;BME280;7733;51.554;13.590;2023-07-20T05:30:05;100066.50;;;18.71;100.00
15263;BME280;7733;51.554;13.590;2023-07-20T05:32:31;100074.78;;;18.65;100.00
15263;BME280;7733;51.554;13.590;2023-07-20T05:34:57;100076.97;;;18.22;100.00
15263;BME280;7733;51.554;13.590;2023-07-20T05:37:23;100070.50;;;18.61;100.00
15263;BME280;7733;51.554;13.590;2023-07-20T05:39:49;100075.69;;;18.29;100.00
15263;BME280;7733;51.554;13.590;2023-07-20T05:42:14;100070.31;;;18.31;100.00
15263;BME280;7733;51.554;13.590;2023-07-20T05:44:41;100075.72;;;18.64;100.00
15263;BME280;7733;51.554;13.590;2023-07-20T05:47:07;100078.47;;;18.61;100.00
15263;BME280;7733;51.554;13.590;2023-07-20T05:49:35;100074.53;;;18.35;100.00
15263;BME280;7733;51.554;13.590;2023-07-20T05:52:01;100077.19;;;18.52;100.00
15263;BME280;7733;51.554;13.590;2023-07-20T05:54:27;100072.03;;;18.49;100.00
15263;BME280;7733;51.554;13.590;2023-07-20T05:56:53;100081.31;;;18.40;100.00
15263;BME280;7733;51.554;13.590;2023-07-20T05:59:19;100071.63;;;18.57;100.00
15263;BME280;7733;51.554;13.590;2023-07-20T06:01:45;100076.66;;;18.63;100.00
15263;BME280;7733;51.554;13.590;2023-07-20T06:04:12;100074.13;;;18.60;100.00
15263;BME280;7733;51.554;13.590;2023-07-20T06:06:38;100086.69;;;18.56;100.00
15263;BME280;7733;51.554;13.590;2023-07-20T06:09:04;100086.47;;;18.61;100.00
15263;BME280;7733;51.554;13.590;2023-07-20T06:11:31;100085.06;;;18.53;100.00
15263;BME280;7733;51.554;13.590;2023-07-20T06:13:57;100082.84;;;18.63;100.00
15263;BME280;7733;51.554;13.590;2023-07-20T06:16:23;100085.66;;;18.93;100.00
15263;BME280;7733;51.554;13.590;2023-07-20T06:18:48;100081.31;;;18.58;100.00
15263;BME280;7733;51.554;13.590;2023-07-20T06:21:14;100088.50;;;18.90;100.00
15263;BME280;7733;51.554;13.590;2023-07-20T06:23:41;100086.91;;;19.03;99.72
15263;BME280;7733;51.554;13.590;2023-07-20T06:26:07;100097.19;;;18.76;98.26
15263;BME280;7733;51.554;13.590;2023-07-20T06:28:33;100097.41;;;18.89;96.41
15263;BME280;7733;51.554;13.590;2023-07-20T06:31:03;100099.56;;;18.98;98.31
15263;BME280;7733;51.554;13.590;2023-07-20T06:33:29;100100.50;;;18.97;98.22
15263;BME280;7733;51.554;13.590;2023-07-20T06:35:55;100099.56;;;18.65;96.43
15263;BME280;7733;51.554;13.590;2023-07-20T06:38:23;100099.47;;;18.84;97.14
15263;BME280;7733;51.554;13.590;2023-07-20T06:40:50;100104.84;;;18.82;98.15
15263;BME280;7733;51.554;13.590;2023-07-20T06:43:16;100107.81;;;18.76;98.65
15263;BME280;7733;51.554;13.590;2023-07-20T06:45:42;100103.34;;;18.94;97.70
15263;BME280;7733;51.554;13.590;2023-07-20T06:48:08;100103.97;;;18.82;96.90
15263;BME280;7733;51.554;13.590;2023-07-20T06:50:34;100102.38;;;18.95;98.57
15263;BME280;7733;51.554;13.590;2023-07-20T06:53:00;100102.22;;;18.98;98.35
15263;BME280;7733;51.554;13.590;2023-07-20T06:55:28;100104.28;;;18.93;96.91
15263;BME280;7733;51.554;13.590;2023-07-20T06:57:54;100109.81;;;19.22;97.77
15263;BME280;7733;51.554;13.590;2023-07-20T07:00:20;100108.31;;;19.33;95.74
15263;BME280;7733;51.554;13.590;2023-07-20T07:02:46;100104.53;;;19.37;95.46
15263;BME280;7733;51.554;13.590;2023-07-20T07:05:11;100109.13;;;19.18;95.28
15263;BME280;7733;51.554;13.590;2023-07-20T07:07:39;100111.47;;;19.24;94.48
15263;BME280;7733;51.554;13.590;2023-07-20T07:10:06;100105.44;;;19.05;94.13
15263;BME280;7733;51.554;13.590;2023-07-20T07:12:32;100110.75;;;19.05;93.67
15263;BME280;7733;51.554;13.590;2023-07-20T07:14:58;100114.50;;;19.34;93.56
15263;BME280;7733;51.554;13.590;2023-07-20T07:17:24;100121.13;;;19.09;94.78
15263;BME280;7733;51.554;13.590;2023-07-20T07:19:52;100120.53;;;19.04;95.17
15263;BME280;7733;51.554;13.590;2023-07-20T07:22:20;100122.31;;;19.04;94.93
15263;BME280;7733;51.554;13.590;2023-07-20T07:24:47;100122.34;;;19.20;93.79
15263;BME280;7733;51.554;13.590;2023-07-20T07:27:14;100124.25;;;19.33;93.77
15263;BME280;7733;51.554;13.590;2023-07-20T07:29:42;100117.56;;;19.42;92.69
15263;BME280;7733;51.554;13.590;2023-07-20T07:32:12;100124.44;;;19.30;92.19
15263;BME280;7733;51.554;13.590;2023-07-20T07:34:38;100130.38;;;19.02;90.69
15263;BME280;7733;51.554;13.590;2023-07-20T07:37:05;100130.00;;;18.93;90.88
15263;BME280;7733;51.554;13.590;2023-07-20T07:39:31;100134.81;;;19.02;90.39
15263;BME280;7733;51.554;13.590;2023-07-20T07:41:57;100140.00;;;19.05;89.85
15263;BME280;7733;51.554;13.590;2023-07-20T07:44:23;100146.00;;;19.08;91.36
15263;BME280;7733;51.554;13.590;2023-07-20T07:46:50;100141.09;;;19.34;89.00
15263;BME280;7733;51.554;13.590;2023-07-20T07:49:16;100147.41;;;18.98;91.93
15263;BME280;7733;51.554;13.590;2023-07-20T07:51:44;100140.81;;;19.38;90.97
15263;BME280;7733;51.554;13.590;2023-07-20T07:54:10;100137.03;;;19.60;89.80
15263;BME280;7733;51.554;13.590;2023-07-20T07:56:35;100152.44;;;19.53;90.38
15263;BME280;7733;51.554;13.590;2023-07-20T07:59:01;100141.28;;;19.47;86.64
15263;BME280;7733;51.554;13.590;2023-07-20T08:01:28;100147.69;;;19.75;86.70
15263;BME280;7733;51.554;13.590;2023-07-20T08:03:54;100141.69;;;19.72;86.42
15263;BME280;7733;51.554;13.590;2023-07-20T08:06:20;100150.78;;;19.84;86.09
15263;BME280;7733;51.554;13.590;2023-07-20T08:08:45;100149.25;;;19.64;86.47
15263;BME280;7733;51.554;13.590;2023-07-20T08:11:11;100150.72;;;19.52;86.25
15263;BME280;7733;51.554;13.590;2023-07-20T08:13:37;100145.97;;;20.06;81.82
15263;BME280;7733;51.554;13.590;2023-07-20T08:16:03;100144.94;;;20.09;82.48
15263;BME280;7733;51.554;13.590;2023-07-20T08:18:29;100150.69;;;20.01;81.24
15263;BME280;7733;51.554;13.590;2023-07-20T08:20:55;100154.00;;;20.20;82.00
15263;BME280;7733;51.554;13.590;2023-07-20T08:23:20;100152.94;;;20.09;82.15
15263;BME280;7733;51.554;13.590;2023-07-20T08:25:46;100155.94;;;19.71;82.00
15263;BME280;7733;51.554;13.590;2023-07-20T08:28:16;100161.06;;;19.58;83.37
15263;BME280;7733;51.554;13.590;2023-07-20T08:30:47;100169.50;;;19.66;83.58
15263;BME280;7733;51.554;13.590;2023-07-20T08:33:16;100160.47;;;19.36;84.02
15263;BME280;7733;51.554;13.590;2023-07-20T08:35:45;100146.75;;;19.77;82.78
15263;BME280;7733;51.554;13.590;2023-07-20T08:38:11;100151.78;;;20.28;81.80
15263;BME280;7733;51.554;13.590;2023-07-20T08:40:45;100147.22;;;20.30;82.13
15263;BME280;7733;51.554;13.590;2023-07-20T08:43:12;100143.50;;;20.49;77.43
15263;BME280;7733;51.554;13.590;2023-07-20T08:45:40;100142.72;;;20.62;77.54
15263;BME280;7733;51.554;13.590;2023-07-20T08:48:07;100148.91;;;20.63;76.81
15263;BME280;7733;51.554;13.590;2023-07-20T08:50:35;100153.50;;;20.45;76.93
15263;BME280;7733;51.554;13.590;2023-07-20T08:53:02;100158.16;;;20.26;77.80
15263;BME280;7733;51.554;13.590;2023-07-20T08:55:29;100158.75;;;20.15;78.04
15263;BME280;7733;51.554;13.590;2023-07-20T08:58:00;100160.91;;;20.70;76.22
15263;BME280;7733;51.554;13.590;2023-07-20T09:00:27;100156.91;;;20.77;74.76
15263;BME280;7733;51.554;13.590;2023-07-20T09:02:55;100160.13;;;20.68;73.51
15263;BME280;7733;51.554;13.590;2023-07-20T09:05:24;100155.63;;;20.84;72.35
15263;BME280;7733;51.554;13.590;2023-07-20T09:07:52;100153.72;;;21.15;73.54
15263;BME280;7733;51.554;13.590;2023-07-20T09:10:21;100154.72;;;21.56;70.88
15263;BME280;7733;51.554;13.590;2023-07-20T09:12:47;100150.41;;;21.68;70.38
15263;BME280;7733;51.554;13.590;2023-07-20T09:15:14;100150.25;;;21.98;68.87
15263;BME280;7733;51.554;13.590;2023-07-20T09:17:45;100144.75;;;21.87;68.23
15263;BME280;7733;51.554;13.590;2023-07-20T09:20:12;100145.63;;;21.73;69.36
15263;BME280;7733;51.554;13.590;2023-07-20T09:22:39;100151.81;;;21.74;68.79
15263;BME280;7733;51.554;13.590;2023-07-20T09:25:17;100147.66;;;21.70;67.80
15263;BME280;7733;51.554;13.590;2023-07-20T09:27:46;100147.75;;;21.68;66.65
15263;BME280;7733;51.554;13.590;2023-07-20T09:30:13;100151.69;;;21.48;66.50
15263;BME280;7733;51.554;13.590;2023-07-20T09:32:48;100145.84;;;22.11;65.63
15263;BME280;7733;51.554;13.590;2023-07-20T09:35:18;100139.72;;;21.82;64.39
15263;BME280;7733;51.554;13.590;2023-07-20T09:38:00;100144.13;;;22.10;65.04
15263;BME280;7733;51.554;13.590;2023-07-20T09:40:27;100148.53;;;22.11;65.69
15263;BME280;7733;51.554;13.590;2023-07-20T09:42:54;100146.38;;;21.90;66.58
15263;BME280;7733;51.554;13.590;2023-07-20T09:45:40;100146.25;;;21.91;66.12
15263;BME280;7733;51.554;13.590;2023-07-20T09:48:09;100140.56;;;21.83;65.15
15263;BME280;7733;51.554;13.590;2023-07-20T09:50:49;100137.69;;;21.86;65.47
15263;BME280;7733;51.554;13.590;2023-07-20T09:53:17;100147.97;;;22.06;64.88
15263;BME280;7733;51.554;13.590;2023-07-20T09:55:45;100151.91;;;22.28;63.90
15263;BME280;7733;51.554;13.590;2023-07-20T09:58:11;100155.41;;;22.55;62.83
15263;BME280;7733;51.554;13.590;2023-07-20T10:00:39;100144.69;;;22.55;60.52
15263;BME280;7733;51.554;13.590;2023-07-20T10:03:06;100139.72;;;22.63;62.97
15263;BME280;7733;51.554;13.590;2023-07-20T10:05:43;100143.16;;;22.38;62.97
15263;BME280;7733;51.554;13.590;2023-07-20T10:08:12;100135.50;;;22.86;61.93
15263;BME280;7733;51.554;13.590;2023-07-20T10:10:42;100132.13;;;22.70;63.50
15263;BME280;7733;51.554;13.590;2023-07-20T10:13:29;100131.34;;;22.55;63.46
15263;BME280;7733;51.554;13.590;2023-07-20T10:16:02;100138.81;;;22.90;61.67
15263;BME280;7733;51.554;13.590;2023-07-20T10:18:37;100141.75;;;22.33;61.38
15263;BME280;7733;51.554;13.590;2023-07-20T10:21:06;100132.94;;;22.85;60.65
15263;BME280;7733;51.554;13.590;2023-07-20T10:23:34;100122.41;;;23.20;60.47
15263;BME280;7733;51.554;13.590;2023-07-20T10:26:01;100124.47;;;23.03;59.82
15263;BME280;7733;51.554;13.590;2023-07-20T10:28:28;100131.53;;;23.17;58.92
15263;BME280;7733;51.554;13.590;2023-07-20T10:30:54;100127.31;;;23.51;57.08
15263;BME280;7733;51.554;13.590;2023-07-20T10:33:20;100117.50;;;23.88;55.75
15263;BME280;7733;51.554;13.590;2023-07-20T10:35:58;100120.78;;;23.68;56.29
15263;BME280;7733;51.554;13.590;2023-07-20T10:38:43;100122.28;;;23.47;55.75
15263;BME280;7733;51.554;13.590;2023-07-20T10:41:28;100125.03;;;23.83;56.90
15263;BME280;7733;51.554;13.590;2023-07-20T10:44:07;100124.41;;;23.42;57.78
15263;BME280;7733;51.554;13.590;2023-07-20T10:46:44;100123.81;;;23.25;58.02
15263;BME280;7733;51.554;13.590;2023-07-20T10:49:12;100124.03;;;22.84;60.17
15263;BME280;7733;51.554;13.590;2023-07-20T10:51:50;100128.97;;;23.03;59.40
15263;BME280;7733;51.554;13.590;2023-07-20T10:56:50;100118.03;;;23.19;58.80
15263;BME280;7733;51.554;13.590;2023-07-20T10:59:40;100123.81;;;23.00;58.14
15263;BME280;7733;51.554;13.590;2023-07-20T11:02:07;100118.53;;;23.62;57.19
15263;BME280;7733;51.554;13.590;2023-07-20T11:04:44;100115.94;;;23.97;57.11
15263;BME280;7733;51.554;13.590;2023-07-20T11:07:15;100114.97;;;24.22;55.50
15263;BME280;7733;51.554;13.590;2023-07-20T11:09:41;100114.94;;;24.35;55.20
15263;BME280;7733;51.554;13.590;2023-07-20T11:12:17;100103.75;;;24.41;52.90
15263;BME280;7733;51.554;13.590;2023-07-20T11:15:03;100103.59;;;24.66;52.61
15263;BME280;7733;51.554;13.590;2023-07-20T11:17:31;100107.09;;;24.55;52.35
15263;BME280;7733;51.554;13.590;2023-07-20T11:20:02;100099.41;;;24.51;51.46
15263;BME280;7733;51.554;13.590;2023-07-20T11:22:31;100085.81;;;24.76;50.83
15263;BME280;7733;51.554;13.590;2023-07-20T11:24:58;100096.84;;;24.49;52.19
15263;BME280;7733;51.554;13.590;2023-07-20T11:27:24;100101.03;;;24.65;50.73
15263;BME280;7733;51.554;13.590;2023-07-20T11:29:50;100110.31;;;24.13;52.53
15263;BME280;7733;51.554;13.590;2023-07-20T11:32:23;100105.47;;;23.94;53.15
15263;BME280;7733;51.554;13.590;2023-07-20T11:34:50;100112.25;;;24.11;51.98
15263;BME280;7733;51.554;13.590;2023-07-20T11:37:17;100101.28;;;23.66;52.63
15263;BME280;7733;51.554;13.590;2023-07-20T11:39:43;100117.00;;;23.83;52.71
15263;BME280;7733;51.554;13.590;2023-07-20T11:42:10;100122.50;;;23.56;53.86
15263;BME280;7733;51.554;13.590;2023-07-20T11:44:37;100118.47;;;23.00;55.83
15263;BME280;7733;51.554;13.590;2023-07-20T11:47:05;100123.34;;;22.81;56.25
15263;BME280;7733;51.554;13.590;2023-07-20T11:49:40;100123.66;;;22.76;58.08
15263;BME280;7733;51.554;13.590;2023-07-20T11:52:11;100128.88;;;22.12;63.38
15263;BME280;7733;51.554;13.590;2023-07-20T11:54:40;100140.66;;;21.81;67.86
15263;BME280;7733;51.554;13.590;2023-07-20T11:57:06;100153.19;;;21.52;74.13
15263;BME280;7733;51.554;13.590;2023-07-20T11:59:32;100144.25;;;21.25;74.33
15263;BME280;7733;51.554;13.590;2023-07-20T12:02:02;100150.84;;;20.89;75.58
15263;BME280;7733;51.554;13.590;2023-07-20T12:04:31;100151.91;;;21.01;76.22
15263;BME280;7733;51.554;13.590;2023-07-20T12:06:57;100143.44;;;21.09;75.50
15263;BME280;7733;51.554;13.590;2023-07-20T12:09:22;100140.59;;;21.40;72.50
15263;BME280;7733;51.554;13.590;2023-07-20T12:11:50;100146.13;;;21.51;74.27
15263;BME280;7733;51.554;13.590;2023-07-20T12:14:16;100142.72;;;21.91;72.07
15263;BME280;7733;51.554;13.590;2023-07-20T12:16:42;100141.81;;;22.19;67.88
15263;BME280;7733;51.554;13.590;2023-07-20T12:19:11;100130.84;;;22.36;67.25
15263;BME280;7733;51.554;13.590;2023-07-20T12:21:40;100138.19;;;22.20;67.00
15263;BME280;7733;51.554;13.590;2023-07-20T12:24:08;100132.25;;;22.29;65.53
15263;BME280;7733;51.554;13.590;2023-07-20T12:26:37;100131.34;;;22.55;61.25
15263;BME280;7733;51.554;13.590;2023-07-20T12:29:04;100131.78;;;22.74;61.25
15263;BME280;7733;51.554;13.590;2023-07-20T12:31:30;100136.19;;;22.23;63.96
15263;BME280;7733;51.554;13.590;2023-07-20T12:33:57;100138.81;;;22.50;62.40
15263;BME280;7733;51.554;13.590;2023-07-20T12:36:24;100132.41;;;22.53;61.82
15263;BME280;7733;51.554;13.590;2023-07-20T12:38:50;100136.94;;;22.77;61.99
15263;BME280;7733;51.554;13.590;2023-07-20T12:41:16;100142.56;;;22.60;63.56
15263;BME280;7733;51.554;13.590;2023-07-20T12:43:44;100131.94;;;22.98;63.01
15263;BME280;7733;51.554;13.590;2023-07-20T12:46:12;100136.22;;;23.01;61.03
15263;BME280;7733;51.554;13.590;2023-07-20T12:48:39;100136.44;;;23.49;59.13
15263;BME280;7733;51.554;13.590;2023-07-20T12:51:06;100128.97;;;22.90;61.35
15263;BME280;7733;51.554;13.590;2023-07-20T12:53:33;100132.44;;;22.78;59.86
15263;BME280;7733;51.554;13.590;2023-07-20T12:55:59;100137.84;;;23.03;59.56
15263;BME280;7733;51.554;13.590;2023-07-20T12:58:26;100128.22;;;23.26;57.72
15263;BME280;7733;51.554;13.590;2023-07-20T13:00:52;100132.88;;;23.61;58.18
15263;BME280;7733;51.554;13.590;2023-07-20T13:03:18;100140.44;;;23.05;58.61